sensor_id;sensor_type;location;lat;lon;timestamp;P1;durP1;ratioP1;P2;durP2;ratioP2
32365;SDS011;18837;46.832;16.838;2024-01-15T00:01:54;29.43;;;20.63;;
32365;SDS011;18837;46.832;16.838;2024-01-15T00:04:20;27.40;;;19.50;;
32365;SDS011;18837;46.832;16.838;2024-01-15T00:06:46;25.03;;;19.33;;
32365;SDS011;18837;46.832;16.838;2024-01-15T00:09:12;27.97;;;19.33;;
32365;SDS011;18837;46.832;16.838;2024-01-15T00:11:37;29.30;;;19.40;;
32365;SDS011;18837;46.832;16.838;2024-01-15T00:14:03;27.40;;;19.87;;
32365;SDS011;18837;46.832;16.838;2024-01-15T00:16:29;24.63;;;18.70;;
32365;SDS011;18837;46.832;16.838;2024-01-15T00:18:55;30.97;;;21.37;;
32365;SDS011;18837;46.832;16.838;2024-01-15T00:21:20;28.63;;;20.40;;
32365;SDS011;18837;46.832;16.838;2024-01-15T00:23:46;28.03;;;19.37;;
32365;SDS011;18837;46.832;16.838;2024-01-15T00:26:12;28.97;;;20.87;;
32365;SDS011;18837;46.832;16.838;2024-01-15T00:28:38;27.73;;;20.00;;
32365;SDS011;18837;46.832;16.838;2024-01-15T00:31:04;30.00;;;21.13;;
32365;SDS011;18837;46.832;16.838;2024-01-15T00:33:30;29.77;;;21.27;;
32365;SDS011;18837;46.832;16.838;2024-01-15T00:35:56;28.77;;;20.77;;
32365;SDS011;18837;46.832;16.838;2024-01-15T00:38:22;29.43;;;21.30;;
32365;SDS011;18837;46.832;16.838;2024-01-15T00:40:48;31.23;;;22.50;;
32365;SDS011;18837;46.832;16.838;2024-01-15T00:43:13;30.90;;;20.77;;
32365;SDS011;18837;46.832;16.838;2024-01-15T00:45:40;28.20;;;20.50;;
32365;SDS011;18837;46.832;16.838;2024-01-15T00:48:06;30.30;;;21.17;;
32365;SDS011;18837;46.832;16.838;2024-01-15T00:50:32;29.20;;;21.50;;
32365;SDS011;18837;46.832;16.838;2024-01-15T00:52:57;31.30;;;22.67;;
32365;SDS011;18837;46.832;16.838;2024-01-15T00:55:23;29.43;;;21.63;;
32365;SDS011;18837;46.832;16.838;2024-01-15T00:57:49;29.00;;;22.33;;
32365;SDS011;18837;46.832;16.838;2024-01-15T01:00:14;31.03;;;21.93;;
32365;SDS011;18837;46.832;16.838;2024-01-15T01:02:41;28.77;;;21.63;;
32365;SDS011;18837;46.832;16.838;2024-01-15T01:05:07;29.77;;;22.07;;
32365;SDS011;18837;46.832;16.838;2024-01-15T01:07:44;31.60;;;22.30;;
32365;SDS011;18837;46.832;16.838;2024-01-15T01:10:11;29.07;;;21.63;;
32365;SDS011;18837;46.832;16.838;2024-01-15T01:12:37;30.47;;;21.70;;
32365;SDS011;18837;46.832;16.838;2024-01-15T01:15:02;33.83;;;23.67;;
32365;SDS011;18837;46.832;16.838;2024-01-15T01:17:29;29.70;;;21.97;;
32365;SDS011;18837;46.832;16.838;2024-01-15T01:19:55;32.00;;;22.03;;
32365;SDS011;18837;46.832;16.838;2024-01-15T01:22:21;32.67;;;21.87;;
32365;SDS011;18837;46.832;16.838;2024-01-15T01:24:48;35.00;;;21.70;;
32365;SDS011;18837;46.832;16.838;2024-01-15T01:27:14;31.73;;;21.97;;
32365;SDS011;18837;46.832;16.838;2024-01-15T01:29:39;31.07;;;22.43;;
32365;SDS011;18837;46.832;16.838;2024-01-15T01:32:05;30.60;;;22.03;;
32365;SDS011;18837;46.832;16.838;2024-01-15T01:34:32;29.97;;;22.43;;
32365;SDS011;18837;46.832;16.838;2024-01-15T01:36:58;34.33;;;23.53;;
32365;SDS011;18837;46.832;16.838;2024-01-15T01:39:23;33.97;;;22.77;;
32365;SDS011;18837;46.832;16.838;2024-01-15T01:41:49;34.57;;;23.27;;
32365;SDS011;18837;46.832;16.838;2024-01-15T01:44:16;38.90;;;24.40;;
32365;SDS011;18837;46.832;16.838;2024-01-15T01:46:42;35.43;;;24.03;;
32365;SDS011;18837;46.832;16.838;2024-01-15T01:49:08;37.27;;;24.87;;
32365;SDS011;18837;46.832;16.838;2024-01-15T01:51:34;35.80;;;23.57;;
32365;SDS011;18837;46.832;16.838;2024-01-15T01:54:02;33.73;;;24.10;;
32365;SDS011;18837;46.832;16.838;2024-01-15T01:56:29;34.60;;;22.93;;
32365;SDS011;18837;46.832;16.838;2024-01-15T01:58:55;35.80;;;23.70;;
32365;SDS011;18837;46.832;16.838;2024-01-15T02:01:21;35.30;;;24.67;;
32365;SDS011;18837;46.832;16.838;2024-01-15T02:03:47;36.13;;;26.07;;
32365;SDS011;18837;46.832;16.838;2024-01-15T02:06:13;36.13;;;24.60;;
32365;SDS011;18837;46.832;16.838;2024-01-15T02:08:39;38.30;;;25.10;;
32365;SDS011;18837;46.832;16.838;2024-01-15T02:11:09;37.70;;;26.00;;
32365;SDS011;18837;46.832;16.838;2024-01-15T02:13:35;33.33;;;24.07;;
32365;SDS011;18837;46.832;16.838;2024-01-15T02:16:00;33.80;;;24.17;;
32365;SDS011;18837;46.832;16.838;2024-01-15T02:18:26;36.93;;;24.63;;
32365;SDS011;18837;46.832;16.838;2024-01-15T02:20:52;32.10;;;23.90;;
32365;SDS011;18837;46.832;16.838;2024-01-15T02:23:18;35.67;;;23.70;;
32365;SDS011;18837;46.832;16.838;2024-01-15T02:25:44;35.77;;;24.93;;
32365;SDS011;18837;46.832;16.838;2024-01-15T02:28:12;33.73;;;24.33;;
32365;SDS011;18837;46.832;16.838;2024-01-15T02:30:39;35.57;;;24.50;;
32365;SDS011;18837;46.832;16.838;2024-01-15T02:33:09;35.50;;;24.43;;
32365;SDS011;18837;46.832;16.838;2024-01-15T02:35:36;34.00;;;24.47;;
32365;SDS011;18837;46.832;16.838;2024-01-15T02:38:02;33.70;;;23.73;;
32365;SDS011;18837;46.832;16.838;2024-01-15T02:40:28;36.67;;;25.37;;
32365;SDS011;18837;46.832;16.838;2024-01-15T02:42:54;34.20;;;24.30;;
32365;SDS011;18837;46.832;16.838;2024-01-15T02:45:20;36.40;;;24.73;;
32365;SDS011;18837;46.832;16.838;2024-01-15T02:47:47;34.80;;;25.57;;
32365;SDS011;18837;46.832;16.838;2024-01-15T02:50:14;35.73;;;24.77;;
32365;SDS011;18837;46.832;16.838;2024-01-15T02:52:41;35.90;;;24.23;;
32365;SDS011;18837;46.832;16.838;2024-01-15T02:55:07;35.87;;;24.53;;
32365;SDS011;18837;46.832;16.838;2024-01-15T02:57:33;36.67;;;24.83;;
32365;SDS011;18837;46.832;16.838;2024-01-15T02:59:59;37.33;;;24.33;;
32365;SDS011;18837;46.832;16.838;2024-01-15T03:02:25;36.27;;;24.90;;
32365;SDS011;18837;46.832;16.838;2024-01-15T03:04:51;36.07;;;25.00;;
32365;SDS011;18837;46.832;16.838;2024-01-15T03:07:17;33.23;;;24.03;;
32365;SDS011;18837;46.832;16.838;2024-01-15T03:09:42;35.07;;;24.63;;
32365;SDS011;18837;46.832;16.838;2024-01-15T03:12:08;34.50;;;24.23;;
32365;SDS011;18837;46.832;16.838;2024-01-15T03:14:35;33.17;;;24.27;;
32365;SDS011;18837;46.832;16.838;2024-01-15T03:17:01;34.60;;;24.90;;
32365;SDS011;18837;46.832;16.838;2024-01-15T03:19:27;37.10;;;26.07;;
32365;SDS011;18837;46.832;16.838;2024-01-15T03:21:52;34.33;;;24.47;;
32365;SDS011;18837;46.832;16.838;2024-01-15T03:24:20;35.53;;;25.93;;
32365;SDS011;18837;46.832;16.838;2024-01-15T03:26:46;32.70;;;24.67;;
32365;SDS011;18837;46.832;16.838;2024-01-15T03:29:12;36.83;;;24.90;;
32365;SDS011;18837;46.832;16.838;2024-01-15T03:31:38;33.97;;;24.23;;
32365;SDS011;18837;46.832;16.838;2024-01-15T03:34:04;35.50;;;25.03;;
32365;SDS011;18837;46.832;16.838;2024-01-15T03:36:29;35.03;;;25.03;;
32365;SDS011;18837;46.832;16.838;2024-01-15T03:38:55;36.50;;;24.70;;
32365;SDS011;18837;46.832;16.838;2024-01-15T03:41:21;34.30;;;24.07;;
32365;SDS011;18837;46.832;16.838;2024-01-15T03:43:47;33.93;;;23.53;;
32365;SDS011;18837;46.832;16.838;2024-01-15T03:46:12;33.00;;;24.30;;
32365;SDS011;18837;46.832;16.838;2024-01-15T03:48:38;34.57;;;24.30;;
32365;SDS011;18837;46.832;16.838;2024-01-15T03:51:04;37.83;;;25.30;;
32365;SDS011;18837;46.832;16.838;2024-01-15T03:53:30;35.57;;;24.80;;
32365;SDS011;18837;46.832;16.838;2024-01-15T03:55:56;32.93;;;24.70;;
32365;SDS011;18837;46.832;16.838;2024-01-15T03:58:23;34.47;;;24.70;;
32365;SDS011;18837;46.832;16.838;2024-01-15T04:00:49;33.43;;;24.63;;
32365;SDS011;18837;46.832;16.838;2024-01-15T04:03:15;35.43;;;24.33;;
32365;SDS011;18837;46.832;16.838;2024-01-15T04:05:41;31.83;;;23.30;;
32365;SDS011;18837;46.832;16.838;2024-01-15T04:08:06;35.83;;;25.33;;
32365;SDS011;18837;46.832;16.838;2024-01-15T04:10:33;36.70;;;25.33;;
32365;SDS011;18837;46.832;16.838;2024-01-15T04:12:59;34.63;;;24.60;;
32365;SDS011;18837;46.832;16.838;2024-01-15T04:15:27;36.90;;;25.47;;
32365;SDS011;18837;46.832;16.838;2024-01-15T04:17:53;36.90;;;24.67;;
32365;SDS011;18837;46.832;16.838;2024-01-15T04:20:18;37.53;;;25.60;;
32365;SDS011;18837;46.832;16.838;2024-01-15T04:22:44;33.83;;;23.97;;
32365;SDS011;18837;46.832;16.838;2024-01-15T04:25:10;36.47;;;25.40;;
32365;SDS011;18837;46.832;16.838;2024-01-15T04:27:36;36.07;;;23.67;;
32365;SDS011;18837;46.832;16.838;2024-01-15T04:30:02;33.80;;;24.70;;
32365;SDS011;18837;46.832;16.838;2024-01-15T04:32:28;37.50;;;24.70;;
32365;SDS011;18837;46.832;16.838;2024-01-15T04:34:55;39.80;;;25.67;;
32365;SDS011;18837;46.832;16.838;2024-01-15T04:37:23;37.03;;;24.40;;
32365;SDS011;18837;46.832;16.838;2024-01-15T04:39:49;38.90;;;25.37;;
32365;SDS011;18837;46.832;16.838;2024-01-15T04:42:17;36.63;;;24.60;;
32365;SDS011;18837;46.832;16.838;2024-01-15T04:44:43;36.33;;;24.40;;
32365;SDS011;18837;46.832;16.838;2024-01-15T04:47:09;36.60;;;24.57;;
32365;SDS011;18837;46.832;16.838;2024-01-15T04:49:35;33.37;;;23.70;;
32365;SDS011;18837;46.832;16.838;2024-01-15T04:52:02;34.60;;;24.13;;
32365;SDS011;18837;46.832;16.838;2024-01-15T04:54:28;34.53;;;24.10;;
32365;SDS011;18837;46.832;16.838;2024-01-15T04:56:54;33.47;;;23.60;;
32365;SDS011;18837;46.832;16.838;2024-01-15T04:59:20;35.93;;;24.10;;
32365;SDS011;18837;46.832;16.838;2024-01-15T05:01:46;35.33;;;24.23;;
32365;SDS011;18837;46.832;16.838;2024-01-15T05:06:47;36.20;;;24.17;;
32365;SDS011;18837;46.832;16.838;2024-01-15T05:09:12;36.80;;;24.70;;
32365;SDS011;18837;46.832;16.838;2024-01-15T05:11:38;33.13;;;23.70;;
32365;SDS011;18837;46.832;16.838;2024-01-15T05:14:04;38.77;;;25.27;;
32365;SDS011;18837;46.832;16.838;2024-01-15T05:16:30;35.83;;;25.67;;
32365;SDS011;18837;46.832;16.838;2024-01-15T05:18:56;32.97;;;23.77;;
32365;SDS011;18837;46.832;16.838;2024-01-15T05:21:31;36.53;;;25.00;;
32365;SDS011;18837;46.832;16.838;2024-01-15T05:23:57;34.30;;;24.53;;
32365;SDS011;18837;46.832;16.838;2024-01-15T05:26:26;34.57;;;24.43;;
32365;SDS011;18837;46.832;16.838;2024-01-15T05:28:51;35.50;;;25.10;;
32365;SDS011;18837;46.832;16.838;2024-01-15T05:31:17;34.73;;;24.47;;
32365;SDS011;18837;46.832;16.838;2024-01-15T05:33:43;36.13;;;24.93;;
32365;SDS011;18837;46.832;16.838;2024-01-15T05:36:08;40.17;;;25.17;;
32365;SDS011;18837;46.832;16.838;2024-01-15T05:38:34;34.97;;;24.73;;
32365;SDS011;18837;46.832;16.838;2024-01-15T05:41:00;35.07;;;24.50;;
32365;SDS011;18837;46.832;16.838;2024-01-15T05:43:26;36.57;;;24.77;;
32365;SDS011;18837;46.832;16.838;2024-01-15T05:45:56;36.53;;;25.97;;
32365;SDS011;18837;46.832;16.838;2024-01-15T05:48:23;37.60;;;24.93;;
32365;SDS011;18837;46.832;16.838;2024-01-15T05:50:49;36.27;;;25.53;;
32365;SDS011;18837;46.832;16.838;2024-01-15T05:53:14;34.23;;;24.50;;
32365;SDS011;18837;46.832;16.838;2024-01-15T05:55:40;37.20;;;25.37;;
32365;SDS011;18837;46.832;16.838;2024-01-15T05:58:06;34.80;;;24.90;;
32365;SDS011;18837;46.832;16.838;2024-01-15T06:00:32;39.37;;;26.33;;
32365;SDS011;18837;46.832;16.838;2024-01-15T06:02:59;37.63;;;26.23;;
32365;SDS011;18837;46.832;16.838;2024-01-15T06:05:25;35.13;;;25.20;;
32365;SDS011;18837;46.832;16.838;2024-01-15T06:07:50;35.60;;;24.73;;
32365;SDS011;18837;46.832;16.838;2024-01-15T06:10:16;36.47;;;25.53;;
32365;SDS011;18837;46.832;16.838;2024-01-15T06:12:43;34.47;;;24.73;;
32365;SDS011;18837;46.832;16.838;2024-01-15T06:15:09;36.70;;;25.73;;
32365;SDS011;18837;46.832;16.838;2024-01-15T06:17:35;38.13;;;25.40;;
32365;SDS011;18837;46.832;16.838;2024-01-15T06:20:02;36.50;;;25.43;;
32365;SDS011;18837;46.832;16.838;2024-01-15T06:22:28;38.43;;;25.50;;
32365;SDS011;18837;46.832;16.838;2024-01-15T06:24:54;45.97;;;30.57;;
32365;SDS011;18837;46.832;16.838;2024-01-15T06:27:20;46.73;;;29.40;;
32365;SDS011;18837;46.832;16.838;2024-01-15T06:29:46;46.60;;;28.33;;
32365;SDS011;18837;46.832;16.838;2024-01-15T06:32:12;45.30;;;30.03;;
32365;SDS011;18837;46.832;16.838;2024-01-15T06:34:38;41.60;;;26.87;;
32365;SDS011;18837;46.832;16.838;2024-01-15T06:37:04;41.40;;;28.30;;
32365;SDS011;18837;46.832;16.838;2024-01-15T06:39:30;39.37;;;28.03;;
32365;SDS011;18837;46.832;16.838;2024-01-15T06:41:56;43.70;;;28.27;;
32365;SDS011;18837;46.832;16.838;2024-01-15T06:44:22;40.80;;;27.10;;
32365;SDS011;18837;46.832;16.838;2024-01-15T06:46:48;41.70;;;28.17;;
32365;SDS011;18837;46.832;16.838;2024-01-15T06:49:14;42.60;;;27.70;;
32365;SDS011;18837;46.832;16.838;2024-01-15T06:51:46;37.97;;;26.93;;
32365;SDS011;18837;46.832;16.838;2024-01-15T06:56:47;45.63;;;27.57;;
32365;SDS011;18837;46.832;16.838;2024-01-15T06:59:13;39.67;;;26.77;;
32365;SDS011;18837;46.832;16.838;2024-01-15T07:01:39;46.90;;;28.23;;
32365;SDS011;18837;46.832;16.838;2024-01-15T07:04:05;37.47;;;26.93;;
32365;SDS011;18837;46.832;16.838;2024-01-15T07:06:31;39.70;;;26.83;;
32365;SDS011;18837;46.832;16.838;2024-01-15T07:08:57;39.87;;;27.77;;
32365;SDS011;18837;46.832;16.838;2024-01-15T07:11:23;42.50;;;25.70;;
32365;SDS011;18837;46.832;16.838;2024-01-15T07:13:49;39.30;;;26.07;;
32365;SDS011;18837;46.832;16.838;2024-01-15T07:16:15;40.93;;;29.40;;
32365;SDS011;18837;46.832;16.838;2024-01-15T07:18:40;41.53;;;28.93;;
32365;SDS011;18837;46.832;16.838;2024-01-15T07:21:06;39.63;;;26.73;;
32365;SDS011;18837;46.832;16.838;2024-01-15T07:23:33;41.17;;;28.47;;
32365;SDS011;18837;46.832;16.838;2024-01-15T07:26:05;42.73;;;28.03;;
32365;SDS011;18837;46.832;16.838;2024-01-15T07:28:30;40.60;;;28.63;;
32365;SDS011;18837;46.832;16.838;2024-01-15T07:30:59;41.90;;;28.67;;
32365;SDS011;18837;46.832;16.838;2024-01-15T07:33:26;42.87;;;28.93;;
32365;SDS011;18837;46.832;16.838;2024-01-15T07:35:52;42.37;;;28.83;;
32365;SDS011;18837;46.832;16.838;2024-01-15T07:38:18;40.57;;;27.70;;
32365;SDS011;18837;46.832;16.838;2024-01-15T07:40:44;44.63;;;28.67;;
32365;SDS011;18837;46.832;16.838;2024-01-15T07:43:14;43.70;;;28.57;;
32365;SDS011;18837;46.832;16.838;2024-01-15T07:45:40;40.87;;;28.67;;
32365;SDS011;18837;46.832;16.838;2024-01-15T07:48:06;42.57;;;28.47;;
32365;SDS011;18837;46.832;16.838;2024-01-15T07:50:32;41.93;;;29.63;;
32365;SDS011;18837;46.832;16.838;2024-01-15T07:52:57;41.90;;;28.97;;
32365;SDS011;18837;46.832;16.838;2024-01-15T07:55:23;41.40;;;28.00;;
32365;SDS011;18837;46.832;16.838;2024-01-15T07:57:49;41.87;;;28.27;;
32365;SDS011;18837;46.832;16.838;2024-01-15T08:00:23;55.37;;;30.63;;
32365;SDS011;18837;46.832;16.838;2024-01-15T08:03:04;48.70;;;31.10;;
32365;SDS011;18837;46.832;16.838;2024-01-15T08:05:55;50.33;;;29.17;;
32365;SDS011;18837;46.832;16.838;2024-01-15T08:08:24;46.17;;;29.60;;
32365;SDS011;18837;46.832;16.838;2024-01-15T08:10:54;50.77;;;30.03;;
32365;SDS011;18837;46.832;16.838;2024-01-15T08:13:20;47.20;;;30.70;;
32365;SDS011;18837;46.832;16.838;2024-01-15T08:15:46;46.63;;;30.43;;
32365;SDS011;18837;46.832;16.838;2024-01-15T08:18:12;46.97;;;30.30;;
32365;SDS011;18837;46.832;16.838;2024-01-15T08:20:38;44.87;;;30.73;;
32365;SDS011;18837;46.832;16.838;2024-01-15T08:23:04;49.33;;;32.23;;
32365;SDS011;18837;46.832;16.838;2024-01-15T08:25:30;45.53;;;30.80;;
32365;SDS011;18837;46.832;16.838;2024-01-15T08:27:57;47.80;;;30.30;;
32365;SDS011;18837;46.832;16.838;2024-01-15T08:30:23;46.47;;;29.90;;
32365;SDS011;18837;46.832;16.838;2024-01-15T08:32:56;49.40;;;30.47;;
32365;SDS011;18837;46.832;16.838;2024-01-15T08:35:28;45.00;;;31.47;;
32365;SDS011;18837;46.832;16.838;2024-01-15T08:37:54;47.40;;;31.00;;
32365;SDS011;18837;46.832;16.838;2024-01-15T08:40:28;45.97;;;30.97;;
32365;SDS011;18837;46.832;16.838;2024-01-15T08:42:54;44.37;;;29.03;;
32365;SDS011;18837;46.832;16.838;2024-01-15T08:45:20;46.93;;;31.00;;
32365;SDS011;18837;46.832;16.838;2024-01-15T08:47:46;51.07;;;31.13;;
32365;SDS011;18837;46.832;16.838;2024-01-15T08:50:12;44.27;;;30.60;;
32365;SDS011;18837;46.832;16.838;2024-01-15T08:52:38;43.93;;;29.40;;
32365;SDS011;18837;46.832;16.838;2024-01-15T08:55:04;46.57;;;31.37;;
32365;SDS011;18837;46.832;16.838;2024-01-15T08:57:32;46.80;;;30.10;;
32365;SDS011;18837;46.832;16.838;2024-01-15T08:59:57;45.97;;;30.03;;
32365;SDS011;18837;46.832;16.838;2024-01-15T09:02:24;41.67;;;28.33;;
32365;SDS011;18837;46.832;16.838;2024-01-15T09:04:50;46.40;;;35.77;;
32365;SDS011;18837;46.832;16.838;2024-01-15T09:07:16;47.53;;;31.43;;
32365;SDS011;18837;46.832;16.838;2024-01-15T09:09:55;46.93;;;31.40;;
32365;SDS011;18837;46.832;16.838;2024-01-15T09:12:33;44.47;;;30.43;;
32365;SDS011;18837;46.832;16.838;2024-01-15T09:14:58;44.13;;;31.63;;
32365;SDS011;18837;46.832;16.838;2024-01-15T09:17:24;46.00;;;30.47;;
32365;SDS011;18837;46.832;16.838;2024-01-15T09:19:50;44.80;;;30.27;;
32365;SDS011;18837;46.832;16.838;2024-01-15T09:22:16;52.37;;;30.73;;
32365;SDS011;18837;46.832;16.838;2024-01-15T09:24:45;47.27;;;31.43;;
32365;SDS011;18837;46.832;16.838;2024-01-15T09:27:11;46.93;;;30.87;;
32365;SDS011;18837;46.832;16.838;2024-01-15T09:29:37;44.43;;;29.27;;
32365;SDS011;18837;46.832;16.838;2024-01-15T09:32:07;46.30;;;31.30;;
32365;SDS011;18837;46.832;16.838;2024-01-15T09:34:33;43.03;;;29.93;;
32365;SDS011;18837;46.832;16.838;2024-01-15T09:37:00;43.63;;;30.33;;
32365;SDS011;18837;46.832;16.838;2024-01-15T09:39:26;43.87;;;30.33;;
32365;SDS011;18837;46.832;16.838;2024-01-15T09:41:53;40.10;;;28.73;;
32365;SDS011;18837;46.832;16.838;2024-01-15T09:44:20;44.40;;;30.40;;
32365;SDS011;18837;46.832;16.838;2024-01-15T09:46:46;45.50;;;31.60;;
32365;SDS011;18837;46.832;16.838;2024-01-15T09:49:15;43.17;;;30.70;;
32365;SDS011;18837;46.832;16.838;2024-01-15T09:51:42;44.40;;;30.63;;
32365;SDS011;18837;46.832;16.838;2024-01-15T09:54:08;43.27;;;29.77;;
32365;SDS011;18837;46.832;16.838;2024-01-15T09:56:34;44.87;;;30.30;;
32365;SDS011;18837;46.832;16.838;2024-01-15T09:59:00;40.93;;;29.47;;
32365;SDS011;18837;46.832;16.838;2024-01-15T10:01:29;42.77;;;29.33;;
32365;SDS011;18837;46.832;16.838;2024-01-15T10:03:57;42.97;;;29.70;;
32365;SDS011;18837;46.832;16.838;2024-01-15T10:06:23;44.47;;;32.20;;
32365;SDS011;18837;46.832;16.838;2024-01-15T10:08:56;41.50;;;29.40;;
32365;SDS011;18837;46.832;16.838;2024-01-15T10:11:25;40.33;;;28.07;;
32365;SDS011;18837;46.832;16.838;2024-01-15T10:13:53;39.33;;;28.57;;
32365;SDS011;18837;46.832;16.838;2024-01-15T10:16:29;39.80;;;27.80;;
32365;SDS011;18837;46.832;16.838;2024-01-15T10:18:55;38.20;;;26.60;;
32365;SDS011;18837;46.832;16.838;2024-01-15T10:21:21;39.83;;;28.27;;
32365;SDS011;18837;46.832;16.838;2024-01-15T10:23:47;39.47;;;26.87;;
32365;SDS011;18837;46.832;16.838;2024-01-15T10:26:12;37.87;;;26.87;;
32365;SDS011;18837;46.832;16.838;2024-01-15T10:28:38;38.90;;;27.57;;
32365;SDS011;18837;46.832;16.838;2024-01-15T10:31:04;38.17;;;26.23;;
32365;SDS011;18837;46.832;16.838;2024-01-15T10:33:35;36.57;;;25.97;;
32365;SDS011;18837;46.832;16.838;2024-01-15T10:36:01;39.07;;;26.23;;
32365;SDS011;18837;46.832;16.838;2024-01-15T10:38:27;33.30;;;24.43;;
32365;SDS011;18837;46.832;16.838;2024-01-15T10:40:56;33.67;;;24.93;;
32365;SDS011;18837;46.832;16.838;2024-01-15T10:43:22;37.43;;;25.70;;
32365;SDS011;18837;46.832;16.838;2024-01-15T10:45:49;36.03;;;25.27;;
32365;SDS011;18837;46.832;16.838;2024-01-15T10:48:18;35.43;;;23.67;;
32365;SDS011;18837;46.832;16.838;2024-01-15T10:53:47;33.47;;;23.80;;
32365;SDS011;18837;46.832;16.838;2024-01-15T10:56:13;30.93;;;22.73;;
32365;SDS011;18837;46.832;16.838;2024-01-15T10:58:39;34.63;;;23.90;;
32365;SDS011;18837;46.832;16.838;2024-01-15T11:01:06;30.43;;;21.33;;
32365;SDS011;18837;46.832;16.838;2024-01-15T11:03:33;32.37;;;22.97;;
32365;SDS011;18837;46.832;16.838;2024-01-15T11:05:59;30.20;;;21.97;;
32365;SDS011;18837;46.832;16.838;2024-01-15T11:08:26;29.53;;;20.57;;
32365;SDS011;18837;46.832;16.838;2024-01-15T11:10:53;27.83;;;21.23;;
32365;SDS011;18837;46.832;16.838;2024-01-15T11:13:39;30.10;;;21.37;;
32365;SDS011;18837;46.832;16.838;2024-01-15T11:16:14;27.73;;;20.87;;
32365;SDS011;18837;46.832;16.838;2024-01-15T11:19:01;28.07;;;20.13;;
32365;SDS011;18837;46.832;16.838;2024-01-15T11:27:10;29.60;;;20.20;;
32365;SDS011;18837;46.832;16.838;2024-01-15T11:29:36;25.87;;;19.40;;
32365;SDS011;18837;46.832;16.838;2024-01-15T11:32:03;28.83;;;19.17;;
32365;SDS011;18837;46.832;16.838;2024-01-15T11:37:26;29.00;;;19.83;;
32365;SDS011;18837;46.832;16.838;2024-01-15T11:39:54;24.57;;;19.37;;
32365;SDS011;18837;46.832;16.838;2024-01-15T11:42:26;24.90;;;18.13;;
32365;SDS011;18837;46.832;16.838;2024-01-15T11:44:52;24.93;;;18.03;;
32365;SDS011;18837;46.832;16.838;2024-01-15T11:47:29;25.67;;;18.53;;
32365;SDS011;18837;46.832;16.838;2024-01-15T11:50:02;25.37;;;17.73;;
32365;SDS011;18837;46.832;16.838;2024-01-15T11:52:36;24.50;;;16.87;;
32365;SDS011;18837;46.832;16.838;2024-01-15T11:58:09;21.73;;;15.77;;
32365;SDS011;18837;46.832;16.838;2024-01-15T12:00:53;25.63;;;17.27;;
32365;SDS011;18837;46.832;16.838;2024-01-15T12:03:20;23.93;;;16.83;;
32365;SDS011;18837;46.832;16.838;2024-01-15T12:05:47;23.43;;;16.97;;
32365;SDS011;18837;46.832;16.838;2024-01-15T12:08:13;24.63;;;16.60;;
32365;SDS011;18837;46.832;16.838;2024-01-15T12:10:39;23.50;;;17.23;;
32365;SDS011;18837;46.832;16.838;2024-01-15T12:13:10;22.10;;;15.87;;
32365;SDS011;18837;46.832;16.838;2024-01-15T12:15:37;23.13;;;16.30;;
32365;SDS011;18837;46.832;16.838;2024-01-15T12:18:06;24.40;;;16.57;;
32365;SDS011;18837;46.832;16.838;2024-01-15T12:20:33;19.70;;;15.40;;
32365;SDS011;18837;46.832;16.838;2024-01-15T12:23:00;21.37;;;15.40;;
32365;SDS011;18837;46.832;16.838;2024-01-15T12:25:26;19.67;;;15.63;;
32365;SDS011;18837;46.832;16.838;2024-01-15T12:27:52;21.80;;;15.80;;
32365;SDS011;18837;46.832;16.838;2024-01-15T12:30:25;21.67;;;15.53;;
32365;SDS011;18837;46.832;16.838;2024-01-15T12:32:51;20.90;;;14.77;;
32365;SDS011;18837;46.832;16.838;2024-01-15T12:35:17;22.30;;;16.57;;
32365;SDS011;18837;46.832;16.838;2024-01-15T12:37:43;20.83;;;15.33;;
32365;SDS011;18837;46.832;16.838;2024-01-15T12:40:11;22.07;;;16.07;;
32365;SDS011;18837;46.832;16.838;2024-01-15T12:42:37;20.57;;;14.93;;
32365;SDS011;18837;46.832;16.838;2024-01-15T12:45:18;21.87;;;15.43;;
32365;SDS011;18837;46.832;16.838;2024-01-15T12:47:50;20.73;;;15.13;;
32365;SDS011;18837;46.832;16.838;2024-01-15T12:50:24;20.33;;;14.97;;
32365;SDS011;18837;46.832;16.838;2024-01-15T12:52:53;21.13;;;15.70;;
32365;SDS011;18837;46.832;16.838;2024-01-15T12:55:18;19.20;;;14.17;;
32365;SDS011;18837;46.832;16.838;2024-01-15T12:57:44;20.50;;;14.30;;
32365;SDS011;18837;46.832;16.838;2024-01-15T13:00:10;19.60;;;14.40;;
32365;SDS011;18837;46.832;16.838;2024-01-15T13:05:46;22.23;;;14.83;;
32365;SDS011;18837;46.832;16.838;2024-01-15T13:08:12;21.53;;;14.80;;
32365;SDS011;18837;46.832;16.838;2024-01-15T13:10:37;18.87;;;14.33;;
32365;SDS011;18837;46.832;16.838;2024-01-15T13:13:03;22.37;;;15.50;;
32365;SDS011;18837;46.832;16.838;2024-01-15T13:15:30;22.47;;;15.30;;
32365;SDS011;18837;46.832;16.838;2024-01-15T13:17:56;19.50;;;14.57;;
32365;SDS011;18837;46.832;16.838;2024-01-15T13:26:01;19.73;;;14.73;;
32365;SDS011;18837;46.832;16.838;2024-01-15T13:28:27;20.80;;;15.67;;
32365;SDS011;18837;46.832;16.838;2024-01-15T13:30:53;21.27;;;14.27;;
32365;SDS011;18837;46.832;16.838;2024-01-15T13:33:19;22.50;;;15.87;;
32365;SDS011;18837;46.832;16.838;2024-01-15T13:35:44;19.47;;;14.23;;
32365;SDS011;18837;46.832;16.838;2024-01-15T13:38:14;17.57;;;13.93;;
32365;SDS011;18837;46.832;16.838;2024-01-15T13:40:41;21.87;;;14.30;;
32365;SDS011;18837;46.832;16.838;2024-01-15T13:43:10;21.37;;;14.37;;
32365;SDS011;18837;46.832;16.838;2024-01-15T13:45:36;22.97;;;15.07;;
32365;SDS011;18837;46.832;16.838;2024-01-15T13:48:04;20.53;;;14.60;;
32365;SDS011;18837;46.832;16.838;2024-01-15T13:50:33;19.83;;;13.83;;
32365;SDS011;18837;46.832;16.838;2024-01-15T13:53:00;18.30;;;14.00;;
32365;SDS011;18837;46.832;16.838;2024-01-15T13:55:39;19.93;;;13.90;;
32365;SDS011;18837;46.832;16.838;2024-01-15T13:58:06;22.27;;;14.50;;
32365;SDS011;18837;46.832;16.838;2024-01-15T14:00:32;18.80;;;14.10;;
32365;SDS011;18837;46.832;16.838;2024-01-15T14:02:58;21.03;;;13.17;;
32365;SDS011;18837;46.832;16.838;2024-01-15T14:05:24;19.53;;;13.87;;
32365;SDS011;18837;46.832;16.838;2024-01-15T14:07:49;20.23;;;14.27;;
32365;SDS011;18837;46.832;16.838;2024-01-15T14:10:15;17.70;;;13.57;;
32365;SDS011;18837;46.832;16.838;2024-01-15T14:12:41;19.83;;;14.27;;
32365;SDS011;18837;46.832;16.838;2024-01-15T14:15:14;23.17;;;13.83;;
32365;SDS011;18837;46.832;16.838;2024-01-15T14:17:40;22.37;;;15.23;;
32365;SDS011;18837;46.832;16.838;2024-01-15T14:20:06;22.30;;;15.70;;
32365;SDS011;18837;46.832;16.838;2024-01-15T14:22:34;22.40;;;15.70;;
32365;SDS011;18837;46.832;16.838;2024-01-15T14:25:00;20.87;;;14.70;;
32365;SDS011;18837;46.832;16.838;2024-01-15T14:27:26;22.53;;;15.60;;
32365;SDS011;18837;46.832;16.838;2024-01-15T14:29:57;19.77;;;15.10;;
32365;SDS011;18837;46.832;16.838;2024-01-15T14:32:39;22.77;;;15.30;;
32365;SDS011;18837;46.832;16.838;2024-01-15T14:35:06;20.67;;;14.87;;
32365;SDS011;18837;46.832;16.838;2024-01-15T14:37:35;20.53;;;14.37;;